sensor_id;sensor_type;location;lat;lon;timestamp;pressure;altitude;pressure_sealevel;temperature;humidity
61537;BME280;48695;53.480;-6.300;2022-11-14T00:02:06;100171.47;;;16.09;78.84
61537;BME280;48695;53.480;-6.300;2022-11-14T00:04:31;100169.78;;;16.08;79.02
61537;BME280;48695;53.480;-6.300;2022-11-14T00:06:57;100161.41;;;16.00;78.79
61537;BME280;48695;53.480;-6.300;2022-11-14T00:09:26;100167.03;;;16.10;78.77
61537;BME280;48695;53.480;-6.300;2022-11-14T00:11:52;100164.59;;;16.07;78.96
61537;BME280;48695;53.480;-6.300;2022-11-14T00:14:17;100173.34;;;16.07;79.14
61537;BME280;48695;53.480;-6.300;2022-11-14T00:16:43;100168.22;;;16.04;78.81
61537;BME280;48695;53.480;-6.300;2022-11-14T00:19:08;100168.13;;;16.06;78.73
61537;BME280;48695;53.480;-6.300;2022-11-14T00:21:34;100173.50;;;16.04;78.91
61537;BME280;48695;53.480;-6.300;2022-11-14T00:23:59;100165.00;;;15.99;78.89
61537;BME280;48695;53.480;-6.300;2022-11-14T00:26:24;100167.53;;;16.01;78.73
61537;BME280;48695;53.480;-6.300;2022-11-14T00:28:50;100179.94;;;15.99;78.45
61537;BME280;48695;53.480;-6.300;2022-11-14T00:31:15;100170.41;;;15.96;78.88
61537;BME280;48695;53.480;-6.300;2022-11-14T00:33:41;100173.22;;;15.93;78.60
61537;BME280;48695;53.480;-6.300;2022-11-14T00:36:06;100164.63;;;15.90;78.47
61537;BME280;48695;53.480;-6.300;2022-11-14T00:38:32;100177.88;;;15.88;78.98
61537;BME280;48695;53.480;-6.300;2022-11-14T00:40:57;100159.59;;;15.85;78.61
61537;BME280;48695;53.480;-6.300;2022-11-14T00:43:22;100169.47;;;15.81;78.92
61537;BME280;48695;53.480;-6.300;2022-11-14T00:45:48;100165.44;;;15.74;78.62
61537;BME280;48695;53.480;-6.300;2022-11-14T00:48:15;100165.44;;;15.74;78.76
61537;BME280;48695;53.480;-6.300;2022-11-14T00:50:41;100170.00;;;15.71;78.97
61537;BME280;48695;53.480;-6.300;2022-11-14T00:53:07;100177.28;;;15.66;78.67
61537;BME280;48695;53.480;-6.300;2022-11-14T00:55:33;100175.69;;;15.63;78.58
61537;BME280;48695;53.480;-6.300;2022-11-14T00:57:58;100167.84;;;15.62;78.74
61537;BME280;48695;53.480;-6.300;2022-11-14T01:00:23;100155.84;;;15.56;78.69
61537;BME280;48695;53.480;-6.300;2022-11-14T01:02:49;100164.66;;;15.55;78.73
61537;BME280;48695;53.480;-6.300;2022-11-14T01:05:14;100164.84;;;15.52;79.21
61537;BME280;48695;53.480;-6.300;2022-11-14T01:07:40;100165.84;;;15.49;78.64
61537;BME280;48695;53.480;-6.300;2022-11-14T01:10:06;100154.59;;;15.46;79.05
61537;BME280;48695;53.480;-6.300;2022-11-14T01:12:32;100130.63;;;15.35;78.63
61537;BME280;48695;53.480;-6.300;2022-11-14T01:14:58;100131.25;;;15.40;78.57
61537;BME280;48695;53.480;-6.300;2022-11-14T01:17:23;100111.28;;;15.36;78.72
61537;BME280;48695;53.480;-6.300;2022-11-14T01:19:49;100116.72;;;15.32;79.13
61537;BME280;48695;53.480;-6.300;2022-11-14T01:22:14;100119.50;;;15.29;79.38
61537;BME280;48695;53.480;-6.300;2022-11-14T01:24:40;100118.75;;;15.27;79.44
61537;BME280;48695;53.480;-6.300;2022-11-14T01:27:05;100130.19;;;15.26;79.81
61537;BME280;48695;53.480;-6.300;2022-11-14T01:29:30;100125.94;;;15.24;79.56
61537;BME280;48695;53.480;-6.300;2022-11-14T01:31:56;100117.19;;;15.23;79.72
61537;BME280;48695;53.480;-6.300;2022-11-14T01:34:22;100123.31;;;15.24;80.02
61537;BME280;48695;53.480;-6.300;2022-11-14T01:36:47;100118.88;;;15.24;80.17
61537;BME280;48695;53.480;-6.300;2022-11-14T01:39:13;100113.19;;;15.16;79.91
61537;BME280;48695;53.480;-6.300;2022-11-14T01:41:38;100110.16;;;15.24;79.76
61537;BME280;48695;53.480;-6.300;2022-11-14T01:44:55;100118.75;;;15.27;79.32
61537;BME280;48695;53.480;-6.300;2022-11-14T01:46:56;100104.81;;;15.25;79.80
61537;BME280;48695;53.480;-6.300;2022-11-14T01:49:25;100102.97;;;15.27;79.93
61537;BME280;48695;53.480;-6.300;2022-11-14T01:52:02;100098.78;;;15.23;79.62
61537;BME280;48695;53.480;-6.300;2022-11-14T01:54:29;100104.50;;;15.31;78.00
61537;BME280;48695;53.480;-6.300;2022-11-14T01:57:01;100095.81;;;15.29;79.51
61537;BME280;48695;53.480;-6.300;2022-11-14T01:59:30;100101.19;;;15.28;79.40
61537;BME280;48695;53.480;-6.300;2022-11-14T02:02:00;100084.25;;;15.16;79.60
61537;BME280;48695;53.480;-6.300;2022-11-14T02:04:31;100096.00;;;15.26;79.79
61537;BME280;48695;53.480;-6.300;2022-11-14T02:07:00;100090.75;;;15.26;79.91
61537;BME280;48695;53.480;-6.300;2022-11-14T02:09:33;100084.63;;;15.26;79.32
61537;BME280;48695;53.480;-6.300;2022-11-14T02:12:01;100089.09;;;15.24;79.62
61537;BME280;48695;53.480;-6.300;2022-11-14T02:14:30;100077.28;;;15.15;80.02
61537;BME280;48695;53.480;-6.300;2022-11-14T02:16:57;100074.50;;;15.18;80.04
61537;BME280;48695;53.480;-6.300;2022-11-14T02:19:22;100077.81;;;15.22;79.68
61537;BME280;48695;53.480;-6.300;2022-11-14T02:21:47;100066.47;;;15.21;79.70
61537;BME280;48695;53.480;-6.300;2022-11-14T02:24:13;100055.94;;;15.21;79.54
61537;BME280;48695;53.480;-6.300;2022-11-14T02:26:40;100054.16;;;15.22;80.01
61537;BME280;48695;53.480;-6.300;2022-11-14T02:29:07;100062.88;;;15.22;79.73
61537;BME280;48695;53.480;-6.300;2022-11-14T02:31:33;100067.44;;;15.19;80.04
61537;BME280;48695;53.480;-6.300;2022-11-14T02:33:59;100058.63;;;15.20;79.62
61537;BME280;48695;53.480;-6.300;2022-11-14T02:36:24;100064.72;;;15.20;80.00
61537;BME280;48695;53.480;-6.300;2022-11-14T02:38:50;100064.81;;;15.19;80.07
61537;BME280;48695;53.480;-6.300;2022-11-14T02:41:15;100058.72;;;15.18;79.59
61537;BME280;48695;53.480;-6.300;2022-11-14T02:43:40;100055.16;;;15.19;79.88
61537;BME280;48695;53.480;-6.300;2022-11-14T02:46:06;100042.94;;;15.18;79.70
61537;BME280;48695;53.480;-6.300;2022-11-14T02:48:31;100035.88;;;15.19;79.69
61537;BME280;48695;53.480;-6.300;2022-11-14T02:50:57;100023.31;;;15.08;79.80
61537;BME280;48695;53.480;-6.300;2022-11-14T02:53:22;100044.63;;;15.19;79.60
61537;BME280;48695;53.480;-6.300;2022-11-14T02:55:48;100040.31;;;15.18;79.58
61537;BME280;48695;53.480;-6.300;2022-11-14T02:58:13;100042.00;;;15.19;79.75
61537;BME280;48695;53.480;-6.300;2022-11-14T03:00:38;100033.69;;;15.11;79.66
61537;BME280;48695;53.480;-6.300;2022-11-14T03:03:04;100019.97;;;15.04;79.83
61537;BME280;48695;53.480;-6.300;2022-11-14T03:05:29;100042.09;;;15.18;79.66
61537;BME280;48695;53.480;-6.300;2022-11-14T03:07:55;100033.34;;;15.17;79.91
61537;BME280;48695;53.480;-6.300;2022-11-14T03:10:22;100024.53;;;15.18;79.52
61537;BME280;48695;53.480;-6.300;2022-11-14T03:12:52;100003.03;;;15.10;79.72
61537;BME280;48695;53.480;-6.300;2022-11-14T03:15:18;100017.66;;;15.16;79.83
61537;BME280;48695;53.480;-6.300;2022-11-14T03:17:43;100003.63;;;15.15;79.60
61537;BME280;48695;53.480;-6.300;2022-11-14T03:20:09;100002.78;;;15.15;79.53
61537;BME280;48695;53.480;-6.300;2022-11-14T03:22:34;100007.19;;;15.14;79.51
61537;BME280;48695;53.480;-6.300;2022-11-14T03:25:00;100008.13;;;15.13;79.68
61537;BME280;48695;53.480;-6.300;2022-11-14T03:27:25;100003.81;;;15.12;79.82
61537;BME280;48695;53.480;-6.300;2022-11-14T03:29:50;100004.66;;;15.13;79.93
61537;BME280;48695;53.480;-6.300;2022-11-14T03:32:16;99980.88;;;14.98;79.61
61537;BME280;48695;53.480;-6.300;2022-11-14T03:34:42;100002.13;;;15.11;79.53
61537;BME280;48695;53.480;-6.300;2022-11-14T03:37:07;99998.56;;;15.12;79.90
61537;BME280;48695;53.480;-6.300;2022-11-14T03:39:33;100000.41;;;15.10;79.85
61537;BME280;48695;53.480;-6.300;2022-11-14T03:41:58;100006.59;;;15.09;79.56
61537;BME280;48695;53.480;-6.300;2022-11-14T03:44:23;99992.78;;;15.05;79.91
61537;BME280;48695;53.480;-6.300;2022-11-14T03:46:50;99980.16;;;14.95;79.94
61537;BME280;48695;53.480;-6.300;2022-11-14T03:49:16;99993.78;;;15.03;79.93
61537;BME280;48695;53.480;-6.300;2022-11-14T03:51:42;99987.66;;;15.02;79.97
61537;BME280;48695;53.480;-6.300;2022-11-14T03:54:07;99973.22;;;14.94;79.66
61537;BME280;48695;53.480;-6.300;2022-11-14T03:56:32;99984.19;;;15.02;80.03
61537;BME280;48695;53.480;-6.300;2022-11-14T03:58:58;99985.13;;;15.01;79.74
61537;BME280;48695;53.480;-6.300;2022-11-14T04:01:23;99975.50;;;15.00;79.99
61537;BME280;48695;53.480;-6.300;2022-11-14T04:03:49;99979.16;;;14.97;79.85
61537;BME280;48695;53.480;-6.300;2022-11-14T04:06:14;99988.66;;;15.00;79.62
61537;BME280;48695;53.480;-6.300;2022-11-14T04:08:40;99993.06;;;14.99;79.72
61537;BME280;48695;53.480;-6.300;2022-11-14T04:11:05;99993.91;;;15.00;79.58
61537;BME280;48695;53.480;-6.300;2022-11-14T04:13:31;99997.47;;;14.99;80.03
61537;BME280;48695;53.480;-6.300;2022-11-14T04:15:57;99984.34;;;14.99;79.70
61537;BME280;48695;53.480;-6.300;2022-11-14T04:18:23;99968.66;;;14.97;80.07
61537;BME280;48695;53.480;-6.300;2022-11-14T04:20:49;99953.34;;;14.88;79.58
61537;BME280;48695;53.480;-6.300;2022-11-14T04:23:15;99971.28;;;14.97;79.71
61537;BME280;48695;53.480;-6.300;2022-11-14T04:25:42;99975.59;;;14.98;79.60
61537;BME280;48695;53.480;-6.300;2022-11-14T04:28:08;99974.75;;;14.98;79.95
61537;BME280;48695;53.480;-6.300;2022-11-14T04:30:33;99975.69;;;14.97;79.89
61537;BME280;48695;53.480;-6.300;2022-11-14T04:32:59;99971.38;;;14.96;79.47
61537;BME280;48695;53.480;-6.300;2022-11-14T04:35:24;99963.41;;;14.97;79.55
61537;BME280;48695;53.480;-6.300;2022-11-14T04:37:50;99966.13;;;14.96;79.53
61537;BME280;48695;53.480;-6.300;2022-11-14T04:40:15;99976.63;;;14.96;79.27
61537;BME280;48695;53.480;-6.300;2022-11-14T04:42:40;99976.78;;;14.93;79.34
61537;BME280;48695;53.480;-6.300;2022-11-14T04:45:06;99975.09;;;14.92;79.42
61537;BME280;48695;53.480;-6.300;2022-11-14T04:47:32;99967.34;;;14.89;79.61
61537;BME280;48695;53.480;-6.300;2022-11-14T04:49:57;99970.91;;;14.88;79.19
61537;BME280;48695;53.480;-6.300;2022-11-14T04:52:23;99970.06;;;14.87;79.09
61537;BME280;48695;53.480;-6.300;2022-11-14T04:54:48;99954.06;;;14.74;78.94
61537;BME280;48695;53.480;-6.300;2022-11-14T04:57:13;99975.56;;;14.83;79.17
61537;BME280;48695;53.480;-6.300;2022-11-14T04:59:40;99973.06;;;14.79;79.17
61537;BME280;48695;53.480;-6.300;2022-11-14T05:02:06;99965.38;;;14.76;79.22
61537;BME280;48695;53.480;-6.300;2022-11-14T05:04:31;99963.72;;;14.74;79.44
61537;BME280;48695;53.480;-6.300;2022-11-14T05:06:56;99954.47;;;14.67;79.64
61537;BME280;48695;53.480;-6.300;2022-11-14T05:09:22;99958.72;;;14.69;79.75
61537;BME280;48695;53.480;-6.300;2022-11-14T05:11:47;99945.75;;;14.66;79.62
61537;BME280;48695;53.480;-6.300;2022-11-14T05:14:13;99951.94;;;14.65;79.91
61537;BME280;48695;53.480;-6.300;2022-11-14T05:16:38;99957.19;;;14.65;79.70
61537;BME280;48695;53.480;-6.300;2022-11-14T05:19:03;99959.88;;;14.64;79.61
61537;BME280;48695;53.480;-6.300;2022-11-14T05:21:29;99938.19;;;14.60;80.02
61537;BME280;48695;53.480;-6.300;2022-11-14T05:23:54;99942.56;;;14.60;79.98
61537;BME280;48695;53.480;-6.300;2022-11-14T05:26:20;99941.72;;;14.59;79.60
61537;BME280;48695;53.480;-6.300;2022-11-14T05:28:45;99949.91;;;14.53;79.67
61537;BME280;48695;53.480;-6.300;2022-11-14T05:31:12;99955.78;;;14.58;79.57
61537;BME280;48695;53.480;-6.300;2022-11-14T05:33:39;99958.59;;;14.55;79.70
61537;BME280;48695;53.480;-6.300;2022-11-14T05:36:12;99959.50;;;14.54;79.55
61537;BME280;48695;53.480;-6.300;2022-11-14T05:38:38;99950.00;;;14.51;79.74
61537;BME280;48695;53.480;-6.300;2022-11-14T05:41:10;99938.94;;;14.45;79.87
61537;BME280;48695;53.480;-6.300;2022-11-14T05:43:35;99956.09;;;14.52;80.25
61537;BME280;48695;53.480;-6.300;2022-11-14T05:46:03;99949.31;;;14.48;79.97
61537;BME280;48695;53.480;-6.300;2022-11-14T05:48:29;99948.31;;;14.50;80.31
61537;BME280;48695;53.480;-6.300;2022-11-14T05:50:59;99945.59;;;14.52;80.13
61537;BME280;48695;53.480;-6.300;2022-11-14T05:53:26;99944.91;;;14.48;80.20
61537;BME280;48695;53.480;-6.300;2022-11-14T05:55:53;99923.47;;;14.39;80.10
61537;BME280;48695;53.480;-6.300;2022-11-14T05:58:19;99926.56;;;14.47;79.86
61537;BME280;48695;53.480;-6.300;2022-11-14T06:00:45;99927.44;;;14.47;80.27
61537;BME280;48695;53.480;-6.300;2022-11-14T06:03:10;99902.63;;;14.36;80.26
61537;BME280;48695;53.480;-6.300;2022-11-14T06:05:36;99924.88;;;14.46;80.03
61537;BME280;48695;53.480;-6.300;2022-11-14T06:08:02;99923.09;;;14.46;80.34
61537;BME280;48695;53.480;-6.300;2022-11-14T06:10:28;99912.66;;;14.45;79.89
61537;BME280;48695;53.480;-6.300;2022-11-14T06:12:54;99907.41;;;14.45;79.85
61537;BME280;48695;53.480;-6.300;2022-11-14T06:15:19;99902.16;;;14.45;80.20
61537;BME280;48695;53.480;-6.300;2022-11-14T06:17:45;99902.16;;;14.45;80.30
61537;BME280;48695;53.480;-6.300;2022-11-14T06:20:11;99887.63;;;14.38;79.98
61537;BME280;48695;53.480;-6.300;2022-11-14T06:22:41;99889.94;;;14.44;80.13
61537;BME280;48695;53.480;-6.300;2022-11-14T06:25:07;99890.03;;;14.42;80.03
61537;BME280;48695;53.480;-6.300;2022-11-14T06:27:33;99881.28;;;14.42;80.23
61537;BME280;48695;53.480;-6.300;2022-11-14T06:29:58;99882.22;;;14.41;79.95
61537;BME280;48695;53.480;-6.300;2022-11-14T06:32:23;99876.97;;;14.41;79.77
61537;BME280;48695;53.480;-6.300;2022-11-14T06:34:49;99862.28;;;14.37;80.19
61537;BME280;48695;53.480;-6.300;2022-11-14T06:37:14;99867.41;;;14.40;80.25
61537;BME280;48695;53.480;-6.300;2022-11-14T06:39:40;99870.09;;;14.38;80.09
61537;BME280;48695;53.480;-6.300;2022-11-14T06:42:05;99886.63;;;14.40;79.75
61537;BME280;48695;53.480;-6.300;2022-11-14T06:44:30;99885.00;;;14.38;79.82
61537;BME280;48695;53.480;-6.300;2022-11-14T06:46:56;99883.31;;;14.37;79.72
61537;BME280;48695;53.480;-6.300;2022-11-14T06:49:21;99889.41;;;14.37;79.64
61537;BME280;48695;53.480;-6.300;2022-11-14T06:51:49;99871.44;;;14.30;79.87
61537;BME280;48695;53.480;-6.300;2022-11-14T06:54:15;99879.91;;;14.35;80.21
61537;BME280;48695;53.480;-6.300;2022-11-14T06:56:40;99893.09;;;14.33;79.76
61537;BME280;48695;53.480;-6.300;2022-11-14T06:59:06;99901.06;;;14.32;79.50
61537;BME280;48695;53.480;-6.300;2022-11-14T07:01:31;99910.88;;;14.28;80.01
61537;BME280;48695;53.480;-6.300;2022-11-14T07:03:56;99917.91;;;14.27;80.10
61537;BME280;48695;53.480;-6.300;2022-11-14T07:06:24;99912.75;;;14.26;80.11
61537;BME280;48695;53.480;-6.300;2022-11-14T07:08:51;99925.97;;;14.24;79.67
61537;BME280;48695;53.480;-6.300;2022-11-14T07:11:20;99928.59;;;14.24;79.15
61537;BME280;48695;53.480;-6.300;2022-11-14T07:13:57;99923.56;;;14.20;79.25
61537;BME280;48695;53.480;-6.300;2022-11-14T07:16:24;99934.13;;;14.18;79.10
61537;BME280;48695;53.480;-6.300;2022-11-14T07:18:50;99937.84;;;14.14;78.60
61537;BME280;48695;53.480;-6.300;2022-11-14T07:21:15;99940.31;;;14.00;78.57
61537;BME280;48695;53.480;-6.300;2022-11-14T07:23:41;99948.84;;;14.03;78.96
61537;BME280;48695;53.480;-6.300;2022-11-14T07:26:09;99962.06;;;14.02;78.81
61537;BME280;48695;53.480;-6.300;2022-11-14T07:28:44;99958.66;;;14.00;78.37
61537;BME280;48695;53.480;-6.300;2022-11-14T07:31:12;99957.25;;;13.93;78.53
61537;BME280;48695;53.480;-6.300;2022-11-14T07:33:38;99964.50;;;13.88;78.74
61537;BME280;48695;53.480;-6.300;2022-11-14T07:36:04;99961.09;;;13.86;79.41
61537;BME280;48695;53.480;-6.300;2022-11-14T07:38:31;99952.06;;;13.74;78.54
61537;BME280;48695;53.480;-6.300;2022-11-14T07:40:58;99939.41;;;13.63;79.16
61537;BME280;48695;53.480;-6.300;2022-11-14T07:43:25;99959.13;;;13.72;79.06
61537;BME280;48695;53.480;-6.300;2022-11-14T07:45:50;99980.00;;;13.75;79.62
61537;BME280;48695;53.480;-6.300;2022-11-14T07:48:16;99974.31;;;13.65;79.62
61537;BME280;48695;53.480;-6.300;2022-11-14T07:50:42;99970.91;;;13.63;79.92
61537;BME280;48695;53.480;-6.300;2022-11-14T07:53:08;99971.78;;;13.64;79.82
61537;BME280;48695;53.480;-6.300;2022-11-14T07:55:37;99974.03;;;13.71;79.79
61537;BME280;48695;53.480;-6.300;2022-11-14T07:58:03;99982.03;;;13.68;79.69
61537;BME280;48695;53.480;-6.300;2022-11-14T08:00:29;99970.63;;;13.69;79.74
61537;BME280;48695;53.480;-6.300;2022-11-14T08:02:54;99965.66;;;13.63;79.82
61537;BME280;48695;53.480;-6.300;2022-11-14T08:05:20;99963.66;;;13.68;79.70
61537;BME280;48695;53.480;-6.300;2022-11-14T08:07:46;99954.09;;;13.67;79.73
61537;BME280;48695;53.480;-6.300;2022-11-14T08:10:14;99949.78;;;13.66;79.68
61537;BME280;48695;53.480;-6.300;2022-11-14T08:12:40;99957.66;;;13.66;80.33
61537;BME280;48695;53.480;-6.300;2022-11-14T08:15:07;99951.47;;;13.67;79.95
61537;BME280;48695;53.480;-6.300;2022-11-14T08:17:33;99949.78;;;13.66;80.27
61537;BME280;48695;53.480;-6.300;2022-11-14T08:19:58;99948.94;;;13.66;79.98
61537;BME280;48695;53.480;-6.300;2022-11-14T08:22:24;99947.94;;;13.68;80.31
61537;BME280;48695;53.480;-6.300;2022-11-14T08:24:49;99951.47;;;13.67;79.97
61537;BME280;48695;53.480;-6.300;2022-11-14T08:27:15;99946.22;;;13.67;80.42
61537;BME280;48695;53.480;-6.300;2022-11-14T08:29:40;99934.81;;;13.68;80.08
61537;BME280;48695;53.480;-6.300;2022-11-14T08:32:06;99933.06;;;13.69;80.37
61537;BME280;48695;53.480;-6.300;2022-11-14T08:34:31;99923.84;;;13.60;80.23
61537;BME280;48695;53.480;-6.300;2022-11-14T08:36:57;99936.53;;;13.69;80.28
61537;BME280;48695;53.480;-6.300;2022-11-14T08:39:22;99939.16;;;13.69;80.12
61537;BME280;48695;53.480;-6.300;2022-11-14T08:41:48;99925.09;;;13.70;80.32
61537;BME280;48695;53.480;-6.300;2022-11-14T08:44:13;99904.56;;;13.61;80.01
61537;BME280;48695;53.480;-6.300;2022-11-14T08:46:38;99918.00;;;13.72;80.24
61537;BME280;48695;53.480;-6.300;2022-11-14T08:49:04;99930.19;;;13.73;80.15
61537;BME280;48695;53.480;-6.300;2022-11-14T08:51:29;99928.34;;;13.75;80.01
61537;BME280;48695;53.480;-6.300;2022-11-14T08:53:55;99924.81;;;13.76;80.38
61537;BME280;48695;53.480;-6.300;2022-11-14T08:56:20;99911.91;;;13.72;80.10
61537;BME280;48695;53.480;-6.300;2022-11-14T08:58:45;99903.69;;;13.80;80.52
61537;BME280;48695;53.480;-6.300;2022-11-14T09:01:11;99911.47;;;13.81;80.04
61537;BME280;48695;53.480;-6.300;2022-11-14T09:03:36;99898.25;;;13.83;80.34
61537;BME280;48695;53.480;-6.300;2022-11-14T09:06:02;99901.69;;;13.85;80.45
61537;BME280;48695;53.480;-6.300;2022-11-14T09:08:28;99904.22;;;13.86;80.03
61537;BME280;48695;53.480;-6.300;2022-11-14T09:10:54;99914.50;;;13.91;80.34
61537;BME280;48695;53.480;-6.300;2022-11-14T09:13:19;99908.31;;;13.92;80.30
61537;BME280;48695;53.480;-6.300;2022-11-14T09:15:46;99908.19;;;13.95;80.32
61537;BME280;48695;53.480;-6.300;2022-11-14T09:18:11;99897.50;;;13.98;79.81
61537;BME280;48695;53.480;-6.300;2022-11-14T09:20:37;99898.22;;;14.01;79.99
61537;BME280;48695;53.480;-6.300;2022-11-14T09:23:03;99893.66;;;14.05;80.01
61537;BME280;48695;53.480;-6.300;2022-11-14T09:25:29;99887.50;;;14.06;79.67
61537;BME280;48695;53.480;-6.300;2022-11-14T09:27:55;99884.84;;;14.06;79.83
61537;BME280;48695;53.480;-6.300;2022-11-14T09:30:21;99895.03;;;14.12;79.59
61537;BME280;48695;53.480;-6.300;2022-11-14T09:32:49;99891.50;;;14.13;79.92
61537;BME280;48695;53.480;-6.300;2022-11-14T09:35:15;99893.03;;;14.17;79.82
61537;BME280;48695;53.480;-6.300;2022-11-14T09:37:41;99891.22;;;14.19;79.88
61537;BME280;48695;53.480;-6.300;2022-11-14T09:40:07;99882.31;;;14.22;79.58
61537;BME280;48695;53.480;-6.300;2022-11-14T09:45:16;99882.91;;;14.27;79.30
61537;BME280;48695;53.480;-6.300;2022-11-14T09:47:47;99894.13;;;14.31;79.40
61537;BME280;48695;53.480;-6.300;2022-11-14T09:50:21;99885.31;;;14.32;79.62
61537;BME280;48695;53.480;-6.300;2022-11-14T09:52:54;99885.16;;;14.35;79.46
61537;BME280;48695;53.480;-6.300;2022-11-14T09:55:22;99885.16;;;14.35;79.14
61537;BME280;48695;53.480;-6.300;2022-11-14T09:57:48;99883.63;;;14.31;79.28
61537;BME280;48695;53.480;-6.300;2022-11-14T10:00:14;99881.63;;;14.36;79.13
61537;BME280;48695;53.480;-6.300;2022-11-14T10:09:17;99907.41;;;14.45;78.92
61537;BME280;48695;53.480;-6.300;2022-11-14T10:12:00;99902.91;;;14.47;78.73
61537;BME280;48695;53.480;-6.300;2022-11-14T10:19:52;99897.59;;;14.48;79.05
61537;BME280;48695;53.480;-6.300;2022-11-14T10:22:33;99902.72;;;14.51;79.23
61537;BME280;48695;53.480;-6.300;2022-11-14T10:25:39;99908.50;;;14.58;79.14
61537;BME280;48695;53.480;-6.300;2022-11-14T10:36:27;99922.22;;;14.81;78.23
61537;BME280;48695;53.480;-6.300;2022-11-14T10:39:03;99915.00;;;14.84;78.13
61537;BME280;48695;53.480;-6.300;2022-11-14T10:41:30;99914.34;;;14.81;78.37
61537;BME280;48695;53.480;-6.300;2022-11-14T10:43:56;99909.94;;;14.81;78.35
61537;BME280;48695;53.480;-6.300;2022-11-14T10:46:26;99907.22;;;14.83;77.95
61537;BME280;48695;53.480;-6.300;2022-11-14T10:48:54;99902.09;;;14.79;78.31
61537;BME280;48695;53.480;-6.300;2022-11-14T10:51:33;99908.91;;;14.84;77.91
61537;BME280;48695;53.480;-6.300;2022-11-14T10:54:21;99909.59;;;14.87;77.60
61537;BME280;48695;53.480;-6.300;2022-11-14T10:56:50;99898.88;;;14.74;77.51
61537;BME280;48695;53.480;-6.300;2022-11-14T10:59:16;99907.22;;;14.83;77.30
61537;BME280;48695;53.480;-6.300;2022-11-14T11:01:44;99901.97;;;14.83;77.08
61537;BME280;48695;53.480;-6.300;2022-11-14T11:04:29;99902.91;;;14.82;77.57
61537;BME280;48695;53.480;-6.300;2022-11-14T11:09:30;99910.16;;;14.76;76.70
61537;BME280;48695;53.480;-6.300;2022-11-14T11:12:21;99895.50;;;14.72;76.54
61537;BME280;48695;53.480;-6.300;2022-11-14T11:14:48;99902.63;;;14.70;76.31
61537;BME280;48695;53.480;-6.300;2022-11-14T11:17:18;99898.44;;;14.66;76.44
61537;BME280;48695;53.480;-6.300;2022-11-14T11:19:45;99895.13;;;14.63;76.39
61537;BME280;48695;53.480;-6.300;2022-11-14T11:24:49;99878.84;;;14.56;76.07
61537;BME280;48695;53.480;-6.300;2022-11-14T11:29:45;99873.72;;;14.53;77.20
61537;BME280;48695;53.480;-6.300;2022-11-14T11:32:23;99876.13;;;14.58;77.47
61537;BME280;48695;53.480;-6.300;2022-11-14T11:34:50;99864.84;;;14.56;77.67
61537;BME280;48695;53.480;-6.300;2022-11-14T11:37:25;99865.81;;;14.70;77.87
61537;BME280;48695;53.480;-6.300;2022-11-14T11:39:54;99866.25;;;14.78;78.40
61537;BME280;48695;53.480;-6.300;2022-11-14T11:42:26;99861.84;;;14.95;77.82
61537;BME280;48695;53.480;-6.300;2022-11-14T11:44:58;99854.91;;;15.10;77.73
61537;BME280;48695;53.480;-6.300;2022-11-14T11:47:25;99854.31;;;15.20;77.59
61537;BME280;48695;53.480;-6.300;2022-11-14T11:49:53;99850.25;;;15.30;76.83
61537;BME280;48695;53.480;-6.300;2022-11-14T11:55:42;99840.59;;;15.47;76.32
61537;BME280;48695;53.480;-6.300;2022-11-14T11:58:16;99838.88;;;15.46;75.54
61537;BME280;48695;53.480;-6.300;2022-11-14T12:00:43;99829.47;;;15.42;75.06
61537;BME280;48695;53.480;-6.300;2022-11-14T12:03:12;99827.75;;;15.41;75.58
61537;BME280;48695;53.480;-6.300;2022-11-14T12:10:51;99825.22;;;15.39;74.64
61537;BME280;48695;53.480;-6.300;2022-11-14T12:19:23;99824.53;;;15.67;75.49
61537;BME280;48695;53.480;-6.300;2022-11-14T12:28:10;99817.34;;;16.44;76.78
61537;BME280;48695;53.480;-6.300;2022-11-14T12:30:11;99808.72;;;16.84;74.64
61537;BME280;48695;53.480;-6.300;2022-11-14T12:32:46;99787.03;;;17.21;74.46
61537;BME280;48695;53.480;-6.300;2022-11-14T12:35:20;99795.84;;;17.61;73.39
61537;BME280;48695;53.480;-6.300;2022-11-14T12:37:48;99792.34;;;17.87;70.59
61537;BME280;48695;53.480;-6.300;2022-11-14T12:40:27;99787.59;;;18.18;71.09
61537;BME280;48695;53.480;-6.300;2022-11-14T12:42:55;99788.16;;;18.36;71.07
61537;BME280;48695;53.480;-6.300;2022-11-14T12:50:49;99779.94;;;19.14;68.92
61537;BME280;48695;53.480;-6.300;2022-11-14T12:53:40;99771.72;;;19.54;71.49
61537;BME280;48695;53.480;-6.300;2022-11-14T13:09:33;99744.81;;;20.17;66.66
61537;BME280;48695;53.480;-6.300;2022-11-14T13:18:17;99741.31;;;20.84;64.52
61537;BME280;48695;53.480;-6.300;2022-11-14T13:21:04;99740.00;;;20.79;65.03
61537;BME280;48695;53.480;-6.300;2022-11-14T13:28:44;99738.56;;;20.52;64.74
61537;BME280;48695;53.480;-6.300;2022-11-14T13:36:34;99736.28;;;20.47;63.93
61537;BME280;48695;53.480;-6.300;2022-11-14T13:50:13;99703.22;;;19.84;63.87
61537;BME280;48695;53.480;-6.300;2022-11-14T13:52:44;99693.59;;;19.83;60.04
61537;BME280;48695;53.480;-6.300;2022-11-14T13:58:26;99695.88;;;20.10;63.90
61537;BME280;48695;53.480;-6.300;2022-11-14T14:01:04;99697.47;;;20.24;60.54
61537;BME280;48695;53.480;-6.300;2022-11-14T14:28:41;99643.75;;;21.92;56.02
61537;BME280;48695;53.480;-6.300;2022-11-14T14:31:15;99641.78;;;21.94;53.57
61537;BME280;48695;53.480;-6.300;2022-11-14T14:33:43;99647.63;;;21.88;50.56
61537;BME280;48695;53.480;-6.300;2022-11-14T14:36:24;99638.06;;;21.76;55.50
61537;BME280;48695;53.480;-6.300;2022-11-14T14:39:05;99648.25;;;21.71;49.96
61537;BME280;48695;53.480;-6.300;2022-11-14T14:41:33;99633.50;;;21.57;52.72
61537;BME280;48695;53.480;-6.300;2022-11-14T14:43:59;99640.41;;;21.48;49.36
61537;BME280;48695;53.480;-6.300;2022-11-14T14:46:31;99629.16;;;21.35;51.31
61537;BME280;48695;53.480;-6.300;2022-11-14T14:48:59;99629.91;;;21.26;53.54
61537;BME280;48695;53.480;-6.300;2022-11-14T14:51:34;99618.69;;;21.22;53.59
61537;BME280;48695;53.480;-6.300;2022-11-14T14:54:00;99628.94;;;21.27;53.63
61537;BME280;48695;53.480;-6.300;2022-11-14T14:56:26;99616.03;;;21.22;52.90